Time;durP1;ratioP1;P1;durP2;ratioP2;P2;SDS_P1;SDS_P2;PMS_P1;PMS_P2;Temp;Humidity;BMP_temperature;BMP_pressure;BME280_temperature;BME280_humidity;BME280_pressure;Samples;Min_cycle;Max_cycle;Signal;HPM_P1;HPM_P2
2021/08/22 00:01:59;;;;;;;60.95;16.27;;;;;;;;;;5050390;28;20083;-76
2021/08/22 00:04:25;;;;;;;58.67;15.48;;;;;;;;;;5049952;28;20055;-76
2021/08/22 00:06:50;;;;;;;53.38;15.10;;;;;;;;;;5050028;28;20033;-76
2021/08/22 00:09:15;;;;;;;49.15;14.40;;;;;;;;;;5049853;28;20024;-77
2021/08/22 00:11:40;;;;;;;71.18;17.10;;;;;;;;;;5049836;28;20025;-78
2021/08/22 00:14:06;;;;;;;110.70;17.92;;;;;;;;;;5050447;28;20377;-76
2021/08/22 00:16:31;;;;;;;52.80;14.60;;;;;;;;;;5031695;28;20037;-76
2021/08/22 00:18:56;;;;;;;48.75;14.25;;;;;;;;;;5049612;28;20033;-76
2021/08/22 00:21:21;;;;;;;51.45;15.30;;;;;;;;;;5050058;28;20064;-76
2021/08/22 00:23:47;;;;;;;54.65;15.48;;;;;;;;;;5049850;28;20085;-77
2021/08/22 00:26:12;;;;;;;48.53;14.55;;;;;;;;;;5050565;28;20037;-76
2021/08/22 00:28:37;;;;;;;86.03;17.73;;;;;;;;;;5049868;28;20033;-75
2021/08/22 00:31:03;;;;;;;50.70;14.77;;;;;;;;;;5049442;28;20045;-76
2021/08/22 00:33:28;;;;;;;51.42;14.70;;;;;;;;;;5049862;28;20033;-76
2021/08/22 00:35:53;;;;;;;56.53;16.42;;;;;;;;;;5049985;28;20032;-76
2021/08/22 00:38:18;;;;;;;56.90;15.68;;;;;;;;;;5050406;28;20096;-76
2021/08/22 00:40:44;;;;;;;65.63;16.85;;;;;;;;;;5050138;28;20120;-76
2021/08/22 00:43:09;;;;;;;49.83;15.35;;;;;;;;;;5049508;28;20033;-76
2021/08/22 00:45:37;;;;;;;70.43;16.85;;;;;;;;;;5049867;28;20117;-77
2021/08/22 00:48:02;;;;;;;74.53;17.00;;;;;;;;;;5049769;28;20477;-76
2021/08/22 00:50:28;;;;;;;64.80;16.92;;;;;;;;;;5050331;28;20064;-78
2021/08/22 00:52:54;;;;;;;100.35;19.20;;;;;;;;;;5053963;28;20445;-76
2021/08/22 00:55:20;;;;;;;77.65;18.55;;;;;;;;;;5053742;28;20029;-76
2021/08/22 00:57:45;;;;;;;72.03;17.10;;;;;;;;;;5053165;28;20102;-76
2021/08/22 01:00:11;;;;;;;83.13;17.90;;;;;;;;;;5052922;28;20025;-76
2021/08/22 01:02:43;;;;;;;77.30;17.38;;;;;;;;;;5053097;28;20033;-76
2021/08/22 01:05:08;;;;;;;93.80;18.25;;;;;;;;;;5053366;28;20037;-76
2021/08/22 01:07:48;;;;;;;123.80;17.23;;;;;;;;;;5053597;28;20028;-76
2021/08/22 01:10:15;;;;;;;52.75;15.50;;;;;;;;;;5053165;28;20029;-75
2021/08/22 01:12:42;;;;;;;81.85;18.08;;;;;;;;;;5052628;28;20555;-76
2021/08/22 01:15:09;;;;;;;128.52;18.50;;;;;;;;;;5053637;28;20028;-76
2021/08/22 01:17:35;;;;;;;65.50;15.93;;;;;;;;;;5052776;28;20493;-75
2021/08/22 01:20:11;;;;;;;76.47;16.23;;;;;;;;;;5052601;28;20622;-76
2021/08/22 01:22:38;;;;;;;54.33;16.17;;;;;;;;;;5052709;28;20023;-76
2021/08/22 01:25:04;;;;;;;70.72;15.57;;;;;;;;;;5052713;28;20542;-75
2021/08/22 01:27:30;;;;;;;62.30;14.95;;;;;;;;;;5053057;28;20056;-75
2021/08/22 01:30:06;;;;;;;63.00;16.48;;;;;;;;;;5035043;28;20385;-75
2021/08/22 01:32:38;;;;;;;67.63;15.95;;;;;;;;;;5052852;28;20052;-75
2021/08/22 01:35:05;;;;;;;77.55;17.42;;;;;;;;;;5052995;28;20036;-75
2021/08/22 01:37:31;;;;;;;65.45;15.32;;;;;;;;;;5052395;28;20404;-76
2021/08/22 01:39:56;;;;;;;57.40;15.65;;;;;;;;;;5051885;28;20097;-76
2021/08/22 01:42:22;;;;;;;79.90;16.95;;;;;;;;;;5053113;28;20405;-75
2021/08/22 01:44:47;;;;;;;73.00;16.50;;;;;;;;;;5052996;28;20453;-76
2021/08/22 01:47:13;;;;;;;77.68;16.05;;;;;;;;;;5052414;28;20385;-76
2021/08/22 01:49:39;;;;;;;74.07;15.48;;;;;;;;;;5052372;28;20029;-75
2021/08/22 01:52:06;;;;;;;52.42;14.50;;;;;;;;;;5052051;28;20036;-75
2021/08/22 01:54:32;;;;;;;75.32;16.85;;;;;;;;;;5052596;28;20048;-76
2021/08/22 01:56:57;;;;;;;43.20;13.32;;;;;;;;;;5035076;28;20084;-75
2021/08/22 01:59:22;;;;;;;71.43;15.93;;;;;;;;;;5052079;28;20519;-76
2021/08/22 02:01:47;;;;;;;64.80;14.73;;;;;;;;;;5050824;28;20013;-76
2021/08/22 02:04:16;;;;;;;57.70;15.02;;;;;;;;;;5051908;28;20025;-76
2021/08/22 02:06:47;;;;;;;101.00;18.70;;;;;;;;;;5052041;28;20029;-76
2021/08/22 02:09:12;;;;;;;258.48;19.73;;;;;;;;;;5051998;28;20024;-76
2021/08/22 02:11:54;;;;;;;447.48;25.67;;;;;;;;;;5051822;28;20148;-77
2021/08/22 02:14:22;;;;;;;63.65;15.02;;;;;;;;;;5051809;28;20033;-75
2021/08/22 02:16:48;;;;;;;68.07;15.73;;;;;;;;;;5051942;28;20044;-76
2021/08/22 02:19:14;;;;;;;62.70;14.68;;;;;;;;;;5051774;28;20037;-76
2021/08/22 02:21:39;;;;;;;51.08;13.77;;;;;;;;;;5052597;28;20025;-75
2021/08/22 02:24:05;;;;;;;58.67;14.35;;;;;;;;;;5051720;28;20029;-76
2021/08/22 02:26:31;;;;;;;60.67;14.13;;;;;;;;;;5051832;28;20028;-76
2021/08/22 02:28:57;;;;;;;105.88;17.55;;;;;;;;;;5051568;28;20025;-75
2021/08/22 02:31:24;;;;;;;107.13;16.92;;;;;;;;;;5051432;28;20464;-76
2021/08/22 02:33:49;;;;;;;127.28;16.92;;;;;;;;;;5051147;28;20477;-78
2021/08/22 02:36:15;;;;;;;66.75;15.85;;;;;;;;;;5052088;28;20032;-75
2021/08/22 02:38:40;;;;;;;80.57;15.15;;;;;;;;;;5051475;28;20199;-75
2021/08/22 02:41:05;;;;;;;64.03;15.13;;;;;;;;;;5051181;28;20381;-75
2021/08/22 02:43:30;;;;;;;88.38;17.00;;;;;;;;;;5051386;28;20017;-75
2021/08/22 02:45:56;;;;;;;78.13;15.77;;;;;;;;;;5051793;28;20085;-76
2021/08/22 02:48:22;;;;;;;94.05;15.63;;;;;;;;;;5052160;28;20470;-76
2021/08/22 02:50:47;;;;;;;122.65;18.00;;;;;;;;;;5051615;28;20076;-75
2021/08/22 02:53:12;;;;;;;93.05;16.42;;;;;;;;;;5051149;28;20060;-75
2021/08/22 02:55:38;;;;;;;82.65;15.30;;;;;;;;;;5051571;28;20140;-76
2021/08/22 02:58:03;;;;;;;69.63;15.35;;;;;;;;;;5051074;28;20021;-77
2021/08/22 03:00:29;;;;;;;85.93;15.93;;;;;;;;;;5052040;28;20025;-75
2021/08/22 03:02:54;;;;;;;50.58;14.05;;;;;;;;;;5050720;28;20424;-76
2021/08/22 03:05:19;;;;;;;103.43;17.67;;;;;;;;;;5052036;28;20028;-76
2021/08/22 03:07:44;;;;;;;78.80;15.75;;;;;;;;;;5051640;28;20476;-77
2021/08/22 03:10:11;;;;;;;101.50;17.23;;;;;;;;;;5051304;28;20037;-76
2021/08/22 03:12:36;;;;;;;65.80;15.32;;;;;;;;;;5051003;28;20017;-76
2021/08/22 03:15:03;;;;;;;128.25;18.88;;;;;;;;;;5050327;28;20036;-76
2021/08/22 03:17:28;;;;;;;150.57;19.52;;;;;;;;;;5050799;28;20405;-76
2021/08/22 03:19:53;;;;;;;79.78;15.32;;;;;;;;;;5050960;28;20021;-76
2021/08/22 03:22:19;;;;;;;78.25;15.38;;;;;;;;;;5050364;28;20429;-76
2021/08/22 03:24:44;;;;;;;55.45;14.15;;;;;;;;;;5050887;28;20461;-77
2021/08/22 03:27:10;;;;;;;77.55;14.77;;;;;;;;;;5051503;28;20069;-76
2021/08/22 03:29:35;;;;;;;48.97;12.68;;;;;;;;;;5050303;28;20059;-77
2021/08/22 03:32:00;;;;;;;61.45;13.07;;;;;;;;;;5051899;28;20053;-76
2021/08/22 03:34:26;;;;;;;52.22;13.05;;;;;;;;;;5052920;28;20017;-76
2021/08/22 03:36:51;;;;;;;50.22;12.45;;;;;;;;;;5053515;28;20049;-76
2021/08/22 03:39:16;;;;;;;59.55;13.38;;;;;;;;;;5053361;28;20135;-76
2021/08/22 03:41:41;;;;;;;62.08;13.90;;;;;;;;;;5053572;28;20021;-75
2021/08/22 03:44:08;;;;;;;83.00;13.70;;;;;;;;;;5052946;28;20044;-76
2021/08/22 03:46:34;;;;;;;79.53;14.40;;;;;;;;;;5053227;28;20033;-75
2021/08/22 03:48:59;;;;;;;89.20;15.02;;;;;;;;;;5053233;28;20035;-76
2021/08/22 03:51:25;;;;;;;64.45;13.90;;;;;;;;;;5053347;28;20117;-76
2021/08/22 03:53:50;;;;;;;51.10;12.20;;;;;;;;;;5053155;28;20469;-76
2021/08/22 03:56:18;;;;;;;58.47;13.13;;;;;;;;;;5053172;28;20666;-76
2021/08/22 03:58:43;;;;;;;66.57;13.32;;;;;;;;;;5053208;28;20036;-76
2021/08/22 04:01:09;;;;;;;37.90;11.38;;;;;;;;;;5053118;28;20033;-76
2021/08/22 04:03:37;;;;;;;69.30;13.90;;;;;;;;;;5053061;28;20051;-77
2021/08/22 04:06:02;;;;;;;93.07;14.93;;;;;;;;;;5053008;28;20033;-76
2021/08/22 04:08:28;;;;;;;196.98;17.55;;;;;;;;;;5052972;28;20108;-76
2021/08/22 04:10:53;;;;;;;113.45;16.70;;;;;;;;;;5053068;28;20044;-76
2021/08/22 04:13:19;;;;;;;61.58;13.18;;;;;;;;;;5052818;28;20036;-76
2021/08/22 04:15:45;;;;;;;47.25;12.30;;;;;;;;;;5052965;28;20123;-75
2021/08/22 04:18:10;;;;;;;42.30;11.43;;;;;;;;;;5034866;28;20540;-76
2021/08/22 04:20:36;;;;;;;36.08;11.15;;;;;;;;;;5052998;28;20120;-76
2021/08/22 04:23:01;;;;;;;36.13;11.48;;;;;;;;;;5052646;28;20369;-76
2021/08/22 04:25:26;;;;;;;35.08;11.38;;;;;;;;;;5052896;28;20471;-76
2021/08/22 04:27:52;;;;;;;48.75;11.88;;;;;;;;;;5052813;28;20020;-76
2021/08/22 04:30:17;;;;;;;70.55;14.00;;;;;;;;;;5052312;28;20033;-76
2021/08/22 04:32:42;;;;;;;69.03;13.32;;;;;;;;;;5053045;28;20021;-76
2021/08/22 04:35:08;;;;;;;78.57;14.13;;;;;;;;;;5052760;28;20031;-76
2021/08/22 04:37:33;;;;;;;64.85;12.80;;;;;;;;;;5052629;28;20491;-76
2021/08/22 04:39:59;;;;;;;41.88;11.57;;;;;;;;;;5053007;28;20052;-76
2021/08/22 04:42:24;;;;;;;44.08;11.95;;;;;;;;;;5052761;28;20539;-76
2021/08/22 04:44:49;;;;;;;72.55;14.40;;;;;;;;;;5052629;28;20037;-76
2021/08/22 04:47:15;;;;;;;59.40;12.20;;;;;;;;;;5052591;28;20025;-76
2021/08/22 04:49:40;;;;;;;59.42;13.10;;;;;;;;;;5052845;28;20040;-77
2021/08/22 04:52:05;;;;;;;39.20;10.40;;;;;;;;;;5052251;28;20063;-76
2021/08/22 04:54:31;;;;;;;47.38;11.23;;;;;;;;;;5052218;28;20020;-76
2021/08/22 04:56:56;;;;;;;39.55;11.20;;;;;;;;;;5052449;28;20049;-77
2021/08/22 04:59:21;;;;;;;38.22;10.05;;;;;;;;;;5052428;28;20033;-76
2021/08/22 05:01:47;;;;;;;30.85;10.32;;;;;;;;;;5052821;28;20112;-76
2021/08/22 05:04:12;;;;;;;36.25;10.25;;;;;;;;;;5052352;28;20385;-76
2021/08/22 05:06:37;;;;;;;45.20;11.07;;;;;;;;;;5052588;28;20115;-76
2021/08/22 05:09:02;;;;;;;38.83;10.48;;;;;;;;;;5052263;28;20017;-76
2021/08/22 05:11:28;;;;;;;58.58;12.95;;;;;;;;;;5052511;28;20029;-76
2021/08/22 05:13:53;;;;;;;33.80;10.63;;;;;;;;;;5052581;28;20163;-76
2021/08/22 05:16:18;;;;;;;99.75;14.73;;;;;;;;;;5052324;28;20025;-76
2021/08/22 05:18:44;;;;;;;48.60;10.85;;;;;;;;;;5052294;28;20057;-76
2021/08/22 05:21:09;;;;;;;41.88;10.95;;;;;;;;;;5052327;28;20036;-76
2021/08/22 05:23:34;;;;;;;46.97;11.50;;;;;;;;;;5052459;28;20013;-76
2021/08/22 05:26:00;;;;;;;47.28;11.45;;;;;;;;;;5052373;28;20076;-76
2021/08/22 05:28:25;;;;;;;41.10;10.50;;;;;;;;;;5052110;28;20033;-76
2021/08/22 05:30:50;;;;;;;46.60;11.52;;;;;;;;;;5052129;28;20048;-76
2021/08/22 05:33:15;;;;;;;54.78;11.75;;;;;;;;;;5051941;28;20035;-76
2021/08/22 05:35:41;;;;;;;67.43;12.85;;;;;;;;;;5052371;28;20101;-76
2021/08/22 05:38:07;;;;;;;60.20;11.65;;;;;;;;;;5055016;28;20037;-76
2021/08/22 05:40:32;;;;;;;31.92;10.13;;;;;;;;;;5055608;28;20025;-76
2021/08/22 05:42:58;;;;;;;43.22;10.57;;;;;;;;;;5055542;28;20124;-76
2021/08/22 05:45:23;;;;;;;43.38;11.45;;;;;;;;;;5055453;28;20021;-75
2021/08/22 05:47:48;;;;;;;45.42;10.45;;;;;;;;;;5055574;28;20029;-76
2021/08/22 05:50:13;;;;;;;59.75;11.23;;;;;;;;;;5055576;28;20120;-76
2021/08/22 05:52:39;;;;;;;30.30;9.10;;;;;;;;;;5055584;28;20017;-76
2021/08/22 05:55:05;;;;;;;20.05;7.72;;;;;;;;;;5055317;28;20071;-76
2021/08/22 05:57:30;;;;;;;47.30;10.60;;;;;;;;;;5055448;28;20040;-76
2021/08/22 05:59:55;;;;;;;46.40;10.02;;;;;;;;;;5055388;28;20047;-77
2021/08/22 06:02:21;;;;;;;54.67;10.88;;;;;;;;;;5055267;28;20488;-76
2021/08/22 06:04:46;;;;;;;73.90;12.75;;;;;;;;;;5055227;28;20040;-76
2021/08/22 06:07:17;;;;;;;36.75;9.77;;;;;;;;;;5055341;28;20404;-76
2021/08/22 06:09:43;;;;;;;70.10;12.75;;;;;;;;;;5054933;28;20461;-76
2021/08/22 06:12:08;;;;;;;43.55;11.43;;;;;;;;;;5055098;28;20035;-76
2021/08/22 06:14:33;;;;;;;35.72;10.05;;;;;;;;;;5055452;28;20013;-76
2021/08/22 06:16:58;;;;;;;19.67;8.35;;;;;;;;;;5054997;28;20436;-77
2021/08/22 06:19:24;;;;;;;51.15;11.43;;;;;;;;;;5054807;28;20029;-76
2021/08/22 06:21:49;;;;;;;56.35;12.07;;;;;;;;;;5055071;28;20511;-76
2021/08/22 06:24:14;;;;;;;67.20;13.27;;;;;;;;;;5054637;28;20040;-76
2021/08/22 06:26:39;;;;;;;44.25;11.57;;;;;;;;;;5055001;28;20033;-76
2021/08/22 06:29:05;;;;;;;57.67;12.68;;;;;;;;;;5054797;28;20021;-77
2021/08/22 06:31:30;;;;;;;48.10;11.95;;;;;;;;;;5054827;28;20427;-75
2021/08/22 06:33:55;;;;;;;27.50;9.30;;;;;;;;;;5054862;28;20033;-75
2021/08/22 06:36:21;;;;;;;47.97;11.60;;;;;;;;;;5036870;28;20052;-75
2021/08/22 06:38:46;;;;;;;29.80;9.63;;;;;;;;;;5054648;28;20033;-77
2021/08/22 06:41:12;;;;;;;21.70;8.10;;;;;;;;;;5054611;28;20033;-75
2021/08/22 06:43:37;;;;;;;25.95;9.40;;;;;;;;;;5054799;28;20445;-77
2021/08/22 06:46:02;;;;;;;27.55;8.77;;;;;;;;;;5054282;28;20056;-74
2021/08/22 06:48:27;;;;;;;27.58;8.95;;;;;;;;;;5053288;28;20033;-75
2021/08/22 06:50:53;;;;;;;24.50;9.00;;;;;;;;;;5054307;28;20021;-75
2021/08/22 06:53:19;;;;;;;21.58;7.50;;;;;;;;;;5054149;28;20086;-75
2021/08/22 06:55:44;;;;;;;20.23;8.10;;;;;;;;;;5054251;28;20119;-75
2021/08/22 06:58:09;;;;;;;32.70;8.65;;;;;;;;;;5054114;28;20064;-75
2021/08/22 07:00:35;;;;;;;21.20;8.07;;;;;;;;;;5054021;28;20040;-75
2021/08/22 07:03:00;;;;;;;22.83;8.57;;;;;;;;;;5053879;28;20112;-75
2021/08/22 07:05:26;;;;;;;26.52;8.32;;;;;;;;;;5054107;28;20051;-75
2021/08/22 07:07:51;;;;;;;18.63;7.10;;;;;;;;;;5053920;28;20142;-76
2021/08/22 07:10:17;;;;;;;20.30;7.22;;;;;;;;;;5053402;28;20090;-75
2021/08/22 07:12:42;;;;;;;11.73;5.93;;;;;;;;;;5053448;28;20029;-76
2021/08/22 07:15:07;;;;;;;17.95;6.47;;;;;;;;;;5053685;28;20021;-75
2021/08/22 07:17:33;;;;;;;9.15;5.30;;;;;;;;;;5053725;28;20389;-75
2021/08/22 07:19:58;;;;;;;9.95;5.45;;;;;;;;;;5053831;28;20449;-76
2021/08/22 07:22:23;;;;;;;8.60;5.50;;;;;;;;;;5054105;28;20032;-76
2021/08/22 07:24:49;;;;;;;7.57;3.65;;;;;;;;;;5053763;28;20055;-76
2021/08/22 07:27:14;;;;;;;12.70;2.92;;;;;;;;;;5035705;28;20017;-76
2021/08/22 07:29:39;;;;;;;10.82;2.80;;;;;;;;;;5053575;28;20461;-77
2021/08/22 07:32:05;;;;;;;5.50;2.40;;;;;;;;;;5053097;28;20053;-77
2021/08/22 07:34:30;;;;;;;4.28;1.70;;;;;;;;;;5053520;28;20031;-76
2021/08/22 07:36:55;;;;;;;6.78;2.00;;;;;;;;;;5053321;28;20465;-76
2021/08/22 07:39:21;;;;;;;5.88;2.05;;;;;;;;;;5045930;28;20040;-78
2021/08/22 07:41:46;;;;;;;8.07;2.80;;;;;;;;;;5053170;28;20060;-77
2021/08/22 07:44:11;;;;;;;4.65;2.15;;;;;;;;;;5053130;28;20473;-77
2021/08/22 07:46:37;;;;;;;6.35;2.10;;;;;;;;;;5052727;28;20021;-79
2021/08/22 07:49:02;;;;;;;8.90;2.05;;;;;;;;;;5051877;28;20107;-79
2021/08/22 07:51:27;;;;;;;7.68;2.20;;;;;;;;;;5053252;28;20029;-76
2021/08/22 07:53:53;;;;;;;5.90;2.15;;;;;;;;;;5052244;28;20241;-76
2021/08/22 07:56:18;;;;;;;5.50;1.90;;;;;;;;;;5051035;28;20037;-77
2021/08/22 07:58:43;;;;;;;3.50;1.90;;;;;;;;;;5050697;28;20393;-77
2021/08/22 08:01:09;;;;;;;6.32;1.60;;;;;;;;;;5050548;28;20499;-78
2021/08/22 08:03:34;;;;;;;4.75;1.80;;;;;;;;;;5050854;28;20025;-78
2021/08/22 08:05:59;;;;;;;3.72;1.42;;;;;;;;;;5047895;28;20025;-79
2021/08/22 08:08:25;;;;;;;3.08;1.58;;;;;;;;;;5050675;28;20466;-78
2021/08/22 08:10:50;;;;;;;2.83;1.53;;;;;;;;;;5051624;28;20092;-78
2021/08/22 08:13:16;;;;;;;5.35;1.80;;;;;;;;;;5052056;28;20254;-78
2021/08/22 08:15:42;;;;;;;5.47;1.45;;;;;;;;;;5052548;28;20028;-78
2021/08/22 08:18:07;;;;;;;3.75;1.70;;;;;;;;;;5052447;28;20407;-78
2021/08/22 08:20:33;;;;;;;2.60;1.48;;;;;;;;;;5052483;28;20036;-78
2021/08/22 08:22:58;;;;;;;5.38;1.50;;;;;;;;;;5052541;28;20047;-78
2021/08/22 08:25:23;;;;;;;3.40;1.40;;;;;;;;;;5052235;28;20017;-78
2021/08/22 08:27:49;;;;;;;8.85;1.60;;;;;;;;;;5052796;28;20591;-79
2021/08/22 08:30:15;;;;;;;2.38;1.33;;;;;;;;;;5052379;28;20059;-79
2021/08/22 08:32:40;;;;;;;3.72;1.42;;;;;;;;;;5052540;28;20025;-78
2021/08/22 08:35:06;;;;;;;4.72;1.42;;;;;;;;;;5052726;28;20087;-79
2021/08/22 08:37:32;;;;;;;3.70;1.30;;;;;;;;;;5052778;28;20068;-78
2021/08/22 08:39:57;;;;;;;3.88;1.20;;;;;;;;;;5052619;28;20063;-78
2021/08/22 08:42:23;;;;;;;3.53;1.38;;;;;;;;;;5034737;28;20487;-79
2021/08/22 08:44:50;;;;;;;3.38;1.50;;;;;;;;;;5052550;28;20504;-79
2021/08/22 08:47:16;;;;;;;3.40;1.10;;;;;;;;;;5052601;28;20029;-79
2021/08/22 08:49:51;;;;;;;2.28;1.10;;;;;;;;;;5052354;28;20036;-79
2021/08/22 08:52:34;;;;;;;2.35;1.02;;;;;;;;;;5052535;28;20369;-78
2021/08/22 08:55:05;;;;;;;2.50;1.05;;;;;;;;;;5051988;28;20477;-78
2021/08/22 08:57:31;;;;;;;3.50;1.30;;;;;;;;;;5049796;28;20064;-79
2021/08/22 08:59:57;;;;;;;2.47;1.08;;;;;;;;;;5048175;28;20057;-79
2021/08/22 09:02:22;;;;;;;1.80;0.80;;;;;;;;;;5052382;28;20507;-78
2021/08/22 09:05:08;;;;;;;4.20;1.48;;;;;;;;;;5052378;28;20041;-78
2021/08/22 09:08:09;;;;;;;3.08;1.25;;;;;;;;;;5051686;28;20072;-80
2021/08/22 09:10:37;;;;;;;3.55;1.00;;;;;;;;;;5052278;28;20108;-78
2021/08/22 09:13:21;;;;;;;4.57;1.00;;;;;;;;;;5055532;28;20087;-79
2021/08/22 09:15:49;;;;;;;3.00;0.85;;;;;;;;;;5056099;28;20029;-79
2021/08/22 09:18:33;;;;;;;3.05;1.02;;;;;;;;;;5056107;28;20056;-78
2021/08/22 09:21:01;;;;;;;6.07;1.52;;;;;;;;;;5056294;28;20025;-78
2021/08/22 09:24:05;;;;;;;3.80;1.25;;;;;;;;;;5056212;28;20033;-78
2021/08/22 09:26:39;;;;;;;5.22;1.10;;;;;;;;;;4955685;29;20210;-78
2021/08/22 09:29:23;;;;;;;4.88;1.60;;;;;;;;;;4955312;29;20431;-78
2021/08/22 09:32:06;;;;;;;5.22;1.60;;;;;;;;;;5019955;28;20045;-79
2021/08/22 09:34:50;;;;;;;4.70;0.95;;;;;;;;;;5055878;28;20387;-78
2021/08/22 09:37:28;;;;;;;2.80;1.00;;;;;;;;;;5055685;28;20090;-77
2021/08/22 09:40:13;;;;;;;3.40;0.90;;;;;;;;;;5055671;28;20535;-78
2021/08/22 09:42:53;;;;;;;3.50;1.30;;;;;;;;;;5055839;28;20345;-77
2021/08/22 09:45:22;;;;;;;2.42;1.15;;;;;;;;;;5055560;28;20258;-78
2021/08/22 09:48:06;;;;;;;3.85;1.02;;;;;;;;;;5055667;28;20033;-78
2021/08/22 09:50:49;;;;;;;2.40;1.00;;;;;;;;;;5055464;28;20136;-78
2021/08/22 09:53:33;;;;;;;2.00;1.10;;;;;;;;;;5055399;28;20036;-78
2021/08/22 09:56:17;;;;;;;1.83;0.97;;;;;;;;;;5054990;28;20441;-78
2021/08/22 09:58:42;;;;;;;2.80;0.80;;;;;;;;;;5055373;28;20029;-78
2021/08/22 10:01:26;;;;;;;2.80;0.87;;;;;;;;;;5055364;28;20354;-78
2021/08/22 10:04:10;;;;;;;1.98;1.00;;;;;;;;;;5035003;28;20757;-78
2021/08/22 10:06:35;;;;;;;4.13;1.33;;;;;;;;;;5017740;28;20038;-78
2021/08/22 10:09:19;;;;;;;4.77;0.90;;;;;;;;;;5035065;28;21037;-78
2021/08/22 10:12:00;;;;;;;3.43;0.90;;;;;;;;;;5035418;28;20301;-78
2021/08/22 10:14:28;;;;;;;2.53;1.05;;;;;;;;;;5034707;28;20474;-77
2021/08/22 10:16:54;;;;;;;3.50;1.00;;;;;;;;;;5034988;28;20037;-78
2021/08/22 10:19:26;;;;;;;7.22;1.00;;;;;;;;;;5034926;28;20087;-77
2021/08/22 10:22:11;;;;;;;3.90;1.10;;;;;;;;;;5034868;28;20470;-78
2021/08/22 10:24:36;;;;;;;3.28;0.90;;;;;;;;;;5034833;28;20029;-78
2021/08/22 10:27:02;;;;;;;3.00;0.90;;;;;;;;;;5035063;28;20417;-78
2021/08/22 10:29:29;;;;;;;1.80;1.00;;;;;;;;;;5034850;28;20255;-77
2021/08/22 10:31:54;;;;;;;2.22;1.27;;;;;;;;;;5035185;28;20049;-77
2021/08/22 10:34:20;;;;;;;4.38;1.08;;;;;;;;;;5034462;28;20108;-78
2021/08/22 10:36:45;;;;;;;3.08;1.05;;;;;;;;;;5035118;28;20034;-78
2021/08/22 10:39:26;;;;;;;1.80;0.70;;;;;;;;;;5034771;28;20456;-77
2021/08/22 10:41:55;;;;;;;1.60;0.90;;;;;;;;;;5034741;28;20092;-78
2021/08/22 10:44:32;;;;;;;2.60;0.88;;;;;;;;;;5034593;28;20080;-77
2021/08/22 10:46:58;;;;;;;6.05;1.10;;;;;;;;;;5034734;28;20120;-77
2021/08/22 10:49:42;;;;;;;4.30;1.08;;;;;;;;;;5034482;28;20124;-77
2021/08/22 10:52:25;;;;;;;3.47;0.70;;;;;;;;;;5037091;28;20021;-78
2021/08/22 10:55:06;;;;;;;2.42;0.85;;;;;;;;;;5051458;28;20104;-77
2021/08/22 11:00:29;;;;;;;2.97;1.02;;;;;;;;;;5053781;28;20025;-76
2021/08/22 11:02:57;;;;;;;2.22;0.88;;;;;;;;;;5053148;28;20040;-76
2021/08/22 11:05:24;;;;;;;1.70;0.90;;;;;;;;;;5053883;28;20519;-76
2021/08/22 11:07:52;;;;;;;3.80;0.90;;;;;;;;;;5053661;28;20029;-77
2021/08/22 11:10:19;;;;;;;6.00;1.20;;;;;;;;;;5053389;28;20390;-76
2021/08/22 11:12:44;;;;;;;3.05;1.08;;;;;;;;;;5054058;28;20075;-76
2021/08/22 11:15:21;;;;;;;2.08;0.90;;;;;;;;;;5053812;28;20138;-77
2021/08/22 11:17:51;;;;;;;2.70;0.90;;;;;;;;;;5053894;28;20080;-76
2021/08/22 11:20:19;;;;;;;4.28;1.10;;;;;;;;;;5053741;28;20163;-76
2021/08/22 11:22:45;;;;;;;2.47;1.00;;;;;;;;;;5053881;28;20111;-76
2021/08/22 11:25:10;;;;;;;3.20;1.00;;;;;;;;;;5053345;28;20108;-76
2021/08/22 11:27:36;;;;;;;2.38;0.88;;;;;;;;;;5053938;28;20033;-76
2021/08/22 11:30:06;;;;;;;12.05;1.02;;;;;;;;;;5053582;28;20292;-77
2021/08/22 11:32:32;;;;;;;8.73;1.35;;;;;;;;;;5053867;28;20076;-75
2021/08/22 11:35:11;;;;;;;5.90;1.33;;;;;;;;;;5052928;28;20064;-76
2021/08/22 11:37:36;;;;;;;1.95;1.00;;;;;;;;;;5053309;28;20128;-76
2021/08/22 11:40:06;;;;;;;1.90;1.10;;;;;;;;;;5053089;28;20069;-76
2021/08/22 11:42:32;;;;;;;0.88;0.68;;;;;;;;;;5053702;28;20028;-75
2021/08/22 11:45:10;;;;;;;3.78;1.08;;;;;;;;;;5053155;28;20037;-76
2021/08/22 11:47:37;;;;;;;1.98;0.95;;;;;;;;;;5053411;28;20029;-76
2021/08/22 11:50:06;;;;;;;2.70;1.10;;;;;;;;;;5053038;28;20061;-76
2021/08/22 11:52:32;;;;;;;2.90;1.02;;;;;;;;;;5053439;28;20067;-76
2021/08/22 11:54:57;;;;;;;2.78;1.05;;;;;;;;;;5053211;28;20056;-77
2021/08/22 11:57:23;;;;;;;6.55;1.15;;;;;;;;;;5052990;28;20068;-75
2021/08/22 12:00:01;;;;;;;4.80;1.15;;;;;;;;;;5052554;28;20044;-76
2021/08/22 12:02:26;;;;;;;5.25;1.30;;;;;;;;;;5053144;28;20033;-76
2021/08/22 12:05:10;;;;;;;3.33;0.90;;;;;;;;;;5053030;28;20094;-76
2021/08/22 12:07:36;;;;;;;4.68;0.95;;;;;;;;;;5052564;28;20470;-76
2021/08/22 12:10:01;;;;;;;1.50;0.82;;;;;;;;;;5052998;28;20099;-76
2021/08/22 12:12:26;;;;;;;3.05;1.10;;;;;;;;;;5053107;28;20032;-76
2021/08/22 12:14:51;;;;;;;2.05;1.00;;;;;;;;;;5052924;28;20451;-76
2021/08/22 12:17:21;;;;;;;3.38;1.02;;;;;;;;;;5052353;28;20464;-76
2021/08/22 12:19:46;;;;;;;3.95;1.20;;;;;;;;;;5052665;28;20032;-76
2021/08/22 12:22:11;;;;;;;2.75;1.00;;;;;;;;;;5034942;28;20030;-76
2021/08/22 12:24:43;;;;;;;4.13;1.10;;;;;;;;;;5052701;28;20481;-76
2021/08/22 12:27:08;;;;;;;7.30;1.33;;;;;;;;;;5052657;28;20032;-76
2021/08/22 12:29:35;;;;;;;3.65;0.93;;;;;;;;;;5052376;28;20025;-77
2021/08/22 12:32:08;;;;;;;3.10;1.10;;;;;;;;;;5052098;28;20620;-76
2021/08/22 12:34:33;;;;;;;3.40;1.25;;;;;;;;;;5052659;28;20029;-77
2021/08/22 12:37:06;;;;;;;1.83;1.00;;;;;;;;;;5052772;28;20045;-76
2021/08/22 12:39:31;;;;;;;3.50;1.30;;;;;;;;;;5052498;28;20033;-76
2021/08/22 12:41:57;;;;;;;2.17;1.25;;;;;;;;;;5052803;28;20358;-76
2021/08/22 12:44:23;;;;;;;2.42;0.90;;;;;;;;;;5052226;28;20025;-76
2021/08/22 12:46:53;;;;;;;4.05;1.35;;;;;;;;;;5055768;28;20029;-75
2021/08/22 12:49:18;;;;;;;3.22;1.10;;;;;;;;;;5056256;28;20474;-76
2021/08/22 12:51:47;;;;;;;3.25;1.40;;;;;;;;;;5056365;28;20039;-77
2021/08/22 12:54:13;;;;;;;2.00;1.08;;;;;;;;;;5056295;28;20091;-77
2021/08/22 12:56:38;;;;;;;4.63;1.27;;;;;;;;;;5056083;28;20033;-75
2021/08/22 12:59:03;;;;;;;3.83;1.40;;;;;;;;;;5038436;28;20067;-76
2021/08/22 13:01:29;;;;;;;4.82;1.35;;;;;;;;;;5055963;28;20464;-76
2021/08/22 13:03:55;;;;;;;2.47;1.27;;;;;;;;;;5056374;28;20053;-76
2021/08/22 13:06:20;;;;;;;2.83;1.40;;;;;;;;;;5056108;28;20056;-75
2021/08/22 13:08:46;;;;;;;3.72;1.02;;;;;;;;;;5056082;28;20503;-76
2021/08/22 13:11:12;;;;;;;4.22;1.30;;;;;;;;;;5055752;28;20044;-76
2021/08/22 13:13:37;;;;;;;3.67;1.35;;;;;;;;;;5055538;28;20025;-76
2021/08/22 13:16:03;;;;;;;2.20;1.15;;;;;;;;;;5055725;28;20033;-76
2021/08/22 13:18:33;;;;;;;4.43;1.20;;;;;;;;;;5056168;28;20452;-76
2021/08/22 13:21:00;;;;;;;3.13;1.20;;;;;;;;;;5055626;28;20470;-75
2021/08/22 13:23:25;;;;;;;3.45;1.30;;;;;;;;;;5055773;28;20440;-75
2021/08/22 13:25:51;;;;;;;4.90;1.52;;;;;;;;;;5055729;28;20021;-75
2021/08/22 13:28:16;;;;;;;11.43;1.30;;;;;;;;;;5056076;28;20111;-75
2021/08/22 13:30:42;;;;;;;5.00;1.48;;;;;;;;;;5055053;28;20107;-77
2021/08/22 13:33:08;;;;;;;3.20;1.33;;;;;;;;;;5055958;28;20021;-75
2021/08/22 13:35:33;;;;;;;3.35;1.40;;;;;;;;;;5055783;28;20335;-75
2021/08/22 13:37:59;;;;;;;2.45;1.25;;;;;;;;;;5055909;28;20110;-76
2021/08/22 13:40:24;;;;;;;5.05;1.50;;;;;;;;;;5055723;28;20052;-75
2021/08/22 13:42:49;;;;;;;3.22;1.17;;;;;;;;;;5055543;28;20028;-74
2021/08/22 13:45:14;;;;;;;4.35;1.30;;;;;;;;;;5055691;28;20040;-75
2021/08/22 13:47:40;;;;;;;4.50;1.65;;;;;;;;;;5055502;28;20021;-75
2021/08/22 13:50:05;;;;;;;3.72;2.03;;;;;;;;;;5055638;28;20074;-75
2021/08/22 13:52:31;;;;;;;9.82;2.20;;;;;;;;;;5055364;28;20029;-74
2021/08/22 13:54:56;;;;;;;3.92;1.45;;;;;;;;;;5055682;28;20114;-74
2021/08/22 13:57:21;;;;;;;2.80;1.33;;;;;;;;;;5054510;28;20045;-75
2021/08/22 13:59:47;;;;;;;3.15;1.30;;;;;;;;;;5055509;28;20032;-74
2021/08/22 14:02:12;;;;;;;3.60;1.48;;;;;;;;;;5055312;28;20484;-76
2021/08/22 14:04:37;;;;;;;2.67;1.50;;;;;;;;;;5055366;28;20035;-75
2021/08/22 14:07:02;;;;;;;4.80;1.75;;;;;;;;;;5055309;28;20055;-76
2021/08/22 14:09:28;;;;;;;2.20;1.40;;;;;;;;;;5055245;28;20025;-75
2021/08/22 14:11:53;;;;;;;3.40;1.67;;;;;;;;;;5055190;28;20029;-75
2021/08/22 14:14:18;;;;;;;3.33;1.25;;;;;;;;;;5055302;28;20461;-75
2021/08/22 14:16:44;;;;;;;2.97;1.58;;;;;;;;;;5054157;28;20116;-75
2021/08/22 14:19:09;;;;;;;2.72;1.50;;;;;;;;;;5054069;28;20039;-75
2021/08/22 14:21:35;;;;;;;5.15;1.50;;;;;;;;;;5054645;28;20031;-75
2021/08/22 14:24:00;;;;;;;3.28;1.73;;;;;;;;;;5054634;28;20048;-74
2021/08/22 14:26:26;;;;;;;2.80;1.48;;;;;;;;;;5054871;28;20061;-74
2021/08/22 14:28:51;;;;;;;2.72;1.23;;;;;;;;;;5054706;28;20435;-75
2021/08/22 14:31:16;;;;;;;3.63;1.40;;;;;;;;;;5054353;28;20041;-77
2021/08/22 14:33:42;;;;;;;2.55;1.40;;;;;;;;;;5054668;28;20111;-75
2021/08/22 14:36:08;;;;;;;4.32;1.73;;;;;;;;;;5054505;28;20094;-75